KFAM/FAM METAR and TAF weather

Enter ICAO airport designator
Station Type Date Time Source
KFAM METAR 2021/07/26 14:56 UTC NOAA

KFAM 261456Z AUTO 07007KT 10SM CLR 28/21 A3006 RMK AO2 SLPNO 6//// T02780206


Station Type Date Time Source
KFAM Decoded METAR 2021/07/26 14:56 UTC NOAA

Farmington Airport, MO, United States (KFAM) 37-46N 090-26W
Jul 26, 2021 - 10:56 AM EDT / 2021.07.26 1456 UTC
Wind: from the ENE (070 degrees) at 8 MPH (7 KT):0
Visibility: 10 mile(s):0
Sky conditions: clear
Temperature: 82.0 F (27.8 C)
Dew Point: 69.1 F (20.6 C)
Relative Humidity: 64%
Pressure (altimeter): 30.06 in. Hg (1017 hPa)
ob: KFAM 261456Z AUTO 07007KT 10SM CLR 28/21 A3006 RMK AO2 SLPNO 6//// T02780206
cycle: 15

Station Type Date Time Source
KFAM TAF UTC NOAA

Error!

Example: see airport list